Time;durP1;ratioP1;P1;durP2;ratioP2;P2;SDS_P1;SDS_P2;PMS_P1;PMS_P2;Temp;Humidity;BMP_temperature;BMP_pressure;BME280_temperature;BME280_humidity;BME280_pressure;Samples;Min_cycle;Max_cycle;Signal;HPM_P1;HPM_P2
2023/12/30 00:00:58;;;;;;;0.90;0.90;;;6.40;99.90;;;;;;5097975;28;20123;-76
2023/12/30 00:03:24;;;;;;;1.43;1.33;;;6.40;99.90;;;;;;5097823;28;20051;-76
2023/12/30 00:05:49;;;;;;;0.90;0.90;;;6.40;99.90;;;;;;5097767;28;20032;-76
2023/12/30 00:08:16;;;;;;;0.90;0.90;;;7.30;99.90;;;;;;5097538;28;20070;-76
2023/12/30 00:10:41;;;;;;;0.90;0.90;;;6.40;99.90;;;;;;5097759;28;20119;-76
2023/12/30 00:13:07;;;;;;;0.90;0.90;;;6.40;99.90;;;;;;5097367;28;20122;-76
2023/12/30 00:15:32;;;;;;;0.90;0.90;;;6.40;99.90;;;;;;5097535;28;20096;-76
2023/12/30 00:17:58;;;;;;;0.90;0.90;;;6.40;99.90;;;;;;5097636;28;20074;-75
2023/12/30 00:20:25;;;;;;;0.90;0.90;;;6.40;99.90;;;;;;5097307;28;20044;-76
2023/12/30 00:22:51;;;;;;;0.80;0.80;;;6.40;99.90;;;;;;5097486;28;20032;-76
2023/12/30 00:25:17;;;;;;;1.00;1.00;;;6.50;99.90;;;;;;5097409;28;20043;-77
2023/12/30 00:27:42;;;;;;;0.90;0.90;;;6.40;99.90;;;;;;5097370;28;20043;-77
2023/12/30 00:30:11;;;;;;;0.80;0.80;;;6.60;99.90;;;;;;5097314;28;20044;-77
2023/12/30 00:32:39;;;;;;;0.80;0.80;;;6.40;99.90;;;;;;5079663;28;20036;-77
2023/12/30 00:35:07;;;;;;;1.20;1.10;;;6.30;99.90;;;;;;5097406;28;20118;-77
2023/12/30 00:37:32;;;;;;;0.90;0.90;;;6.30;99.90;;;;;;5097209;28;20079;-76
2023/12/30 00:39:58;;;;;;;0.88;0.88;;;6.30;99.90;;;;;;5097236;28;20063;-76
2023/12/30 00:42:24;;;;;;;0.90;0.90;;;6.20;99.90;;;;;;5097030;28;20483;-77
2023/12/30 00:44:49;;;;;;;1.58;1.48;;;6.20;99.90;;;;;;5097129;28;20107;-76
2023/12/30 00:47:15;;;;;;;0.90;0.90;;;6.20;99.90;;;;;;5096778;28;20040;-76
2023/12/30 00:49:40;;;;;;;1.10;1.00;;;6.20;99.90;;;;;;5096917;28;20067;-76
2023/12/30 00:52:06;;;;;;;0.90;0.90;;;6.20;99.90;;;;;;5097193;28;20036;-76
2023/12/30 00:54:32;;;;;;;0.90;0.90;;;6.10;99.90;;;;;;5096693;28;20467;-75
2023/12/30 00:56:57;;;;;;;0.90;0.90;;;6.10;99.90;;;;;;5096536;28;20097;-75
2023/12/30 00:59:23;;;;;;;1.10;1.00;;;6.10;99.90;;;;;;5097329;28;20476;-76
2023/12/30 01:01:48;;;;;;;0.90;0.90;;;6.40;99.90;;;;;;5096509;28;20078;-77
2023/12/30 01:04:14;;;;;;;1.08;0.98;;;7.30;99.90;;;;;;5097057;28;20081;-77
2023/12/30 01:06:39;;;;;;;1.10;1.00;;;6.00;99.90;;;;;;5096723;28;20051;-76
2023/12/30 01:09:05;;;;;;;0.90;0.90;;;6.00;99.90;;;;;;5094430;28;20043;-75
2023/12/30 01:11:31;;;;;;;0.90;0.90;;;6.00;99.90;;;;;;5096542;28;20036;-75
2023/12/30 01:13:56;;;;;;;0.80;0.80;;;6.00;99.90;;;;;;5096288;28;20079;-76
2023/12/30 01:16:22;;;;;;;0.90;0.90;;;5.90;99.90;;;;;;5096457;28;20055;-77
2023/12/30 01:18:47;;;;;;;0.90;0.90;;;5.90;99.90;;;;;;5096417;28;20043;-75
2023/12/30 01:21:13;;;;;;;0.90;0.90;;;5.90;99.90;;;;;;5096637;28;20055;-76
2023/12/30 01:23:39;;;;;;;1.00;1.00;;;6.00;99.90;;;;;;5095655;28;20460;-75
2023/12/30 01:26:04;;;;;;;0.90;0.90;;;5.90;99.90;;;;;;5096133;28;20042;-76
2023/12/30 01:28:31;;;;;;;0.90;0.90;;;6.00;99.90;;;;;;5096118;28;20043;-76
2023/12/30 01:30:56;;;;;;;0.90;0.90;;;6.00;99.90;;;;;;5095788;28;20050;-75
2023/12/30 01:33:22;;;;;;;0.90;0.90;;;5.90;99.90;;;;;;5095908;28;20126;-76
2023/12/30 01:35:48;;;;;;;1.00;1.00;;;5.90;99.90;;;;;;5096374;28;20044;-77
2023/12/30 01:38:13;;;;;;;1.08;1.00;;;5.90;99.90;;;;;;5096073;28;20039;-75
2023/12/30 01:40:39;;;;;;;0.82;0.82;;;5.80;99.90;;;;;;5096007;28;20111;-77
2023/12/30 01:43:05;;;;;;;0.80;0.80;;;5.80;99.90;;;;;;5095854;28;20094;-76
2023/12/30 01:45:31;;;;;;;0.90;0.90;;;5.80;99.90;;;;;;5095941;28;20047;-75
2023/12/30 01:47:58;;;;;;;0.90;0.90;;;5.80;99.90;;;;;;5095883;28;20123;-75
2023/12/30 01:50:23;;;;;;;0.90;0.90;;;5.80;99.90;;;;;;5096122;28;20051;-75
2023/12/30 01:52:50;;;;;;;0.90;0.90;;;5.70;99.90;;;;;;5095798;28;20198;-75
2023/12/30 01:55:17;;;;;;;0.90;0.90;;;5.70;99.90;;;;;;5095639;28;20040;-76
2023/12/30 01:57:44;;;;;;;1.10;1.00;;;5.70;99.90;;;;;;5095494;28;20089;-76
2023/12/30 02:00:15;;;;;;;0.90;0.90;;;5.70;99.90;;;;;;5095992;28;20043;-75
2023/12/30 02:02:41;;;;;;;0.90;0.90;;;5.60;99.90;;;;;;5095878;28;20132;-76
2023/12/30 02:05:08;;;;;;;0.90;0.90;;;5.60;99.90;;;;;;5095506;28;20039;-75
2023/12/30 02:07:33;;;;;;;0.90;0.90;;;5.60;99.90;;;;;;5095506;28;20052;-76
2023/12/30 02:09:59;;;;;;;1.08;1.00;;;5.60;99.90;;;;;;5095462;28;20063;-77
2023/12/30 02:12:25;;;;;;;0.90;0.90;;;6.00;99.90;;;;;;5095307;28;20468;-74
2023/12/30 02:14:50;;;;;;;0.90;0.90;;;5.50;99.90;;;;;;5095278;28;20036;-75
2023/12/30 02:17:16;;;;;;;0.90;0.90;;;5.70;99.90;;;;;;5095404;28;20460;-77
2023/12/30 02:19:41;;;;;;;0.90;0.90;;;5.40;99.90;;;;;;5094690;28;20464;-76
2023/12/30 02:22:07;;;;;;;1.10;1.00;;;5.40;99.90;;;;;;5095397;28;20105;-75
2023/12/30 02:24:32;;;;;;;0.90;0.90;;;5.40;99.90;;;;;;5095090;28;20032;-76
2023/12/30 02:26:58;;;;;;;1.10;1.00;;;5.40;99.90;;;;;;5095091;28;20032;-75
2023/12/30 02:29:24;;;;;;;1.10;1.00;;;5.40;99.90;;;;;;5095018;28;20039;-77
2023/12/30 02:31:49;;;;;;;0.82;0.82;;;5.40;99.90;;;;;;5095038;28;20123;-76
2023/12/30 02:34:17;;;;;;;0.90;0.90;;;5.30;99.90;;;;;;5094974;28;20066;-75
2023/12/30 02:36:43;;;;;;;0.90;0.90;;;5.40;99.90;;;;;;5094916;28;20093;-76
2023/12/30 02:39:09;;;;;;;1.10;1.00;;;5.10;99.90;;;;;;5095067;28;20047;-77
2023/12/30 02:41:35;;;;;;;0.82;0.82;;;5.40;99.90;;;;;;5094745;28;20040;-77
2023/12/30 02:44:02;;;;;;;1.02;1.00;;;5.40;99.90;;;;;;5094721;28;20495;-76
2023/12/30 02:46:28;;;;;;;0.90;0.90;;;6.00;99.90;;;;;;5094917;28;20036;-76
2023/12/30 02:48:54;;;;;;;1.10;1.00;;;5.30;99.90;;;;;;5094729;28;20081;-75
2023/12/30 02:51:20;;;;;;;0.98;0.98;;;5.40;99.90;;;;;;5094546;28;20124;-75
2023/12/30 02:53:45;;;;;;;0.90;0.90;;;5.20;99.90;;;;;;5094217;28;20075;-75
2023/12/30 02:56:19;;;;;;;1.10;1.00;;;5.20;99.90;;;;;;5094330;28;20117;-76
2023/12/30 02:58:47;;;;;;;0.95;0.95;;;5.20;99.90;;;;;;5094481;28;20042;-77
2023/12/30 03:01:12;;;;;;;1.10;1.00;;;5.10;99.90;;;;;;5094859;28;20040;-75
2023/12/30 03:03:38;;;;;;;1.30;1.20;;;5.10;99.90;;;;;;5094407;28;20047;-77
2023/12/30 03:06:03;;;;;;;0.93;0.93;;;5.00;99.90;;;;;;5094192;28;20036;-76
2023/12/30 03:08:29;;;;;;;1.08;1.00;;;5.00;99.90;;;;;;5094586;28;20460;-76
2023/12/30 03:10:55;;;;;;;1.10;1.00;;;5.00;99.90;;;;;;5094255;28;20043;-75
2023/12/30 03:13:21;;;;;;;1.10;1.00;;;5.10;99.90;;;;;;5094708;28;20052;-75
2023/12/30 03:15:46;;;;;;;0.90;0.90;;;5.00;99.90;;;;;;5094103;28;20463;-74
2023/12/30 03:18:12;;;;;;;0.95;0.95;;;5.00;99.90;;;;;;5094084;28;20047;-75
2023/12/30 03:20:38;;;;;;;0.95;0.90;;;5.10;99.90;;;;;;5093811;28;20486;-76
2023/12/30 03:23:03;;;;;;;0.98;0.98;;;4.90;99.90;;;;;;5093968;28;20043;-75
2023/12/30 03:25:29;;;;;;;0.90;0.90;;;4.90;99.90;;;;;;5093710;28;20124;-75
2023/12/30 03:27:54;;;;;;;1.10;1.00;;;4.90;99.90;;;;;;5094428;28;20040;-75
2023/12/30 03:30:21;;;;;;;1.00;1.00;;;4.90;99.90;;;;;;5093792;28;20070;-76
2023/12/30 03:32:46;;;;;;;1.10;1.00;;;5.30;99.90;;;;;;5093773;28;20460;-75
2023/12/30 03:35:12;;;;;;;0.90;0.90;;;4.80;99.90;;;;;;5093915;28;20036;-74
2023/12/30 03:37:38;;;;;;;1.10;1.00;;;5.70;99.90;;;;;;5094001;28;20460;-76
2023/12/30 03:40:04;;;;;;;0.90;0.90;;;4.80;99.90;;;;;;5093566;28;20039;-75
2023/12/30 03:42:29;;;;;;;1.10;1.00;;;4.80;99.90;;;;;;5093849;28;20039;-76
2023/12/30 03:44:56;;;;;;;1.00;1.00;;;4.70;99.90;;;;;;5093850;28;20089;-75
2023/12/30 03:47:22;;;;;;;1.10;1.00;;;4.70;99.90;;;;;;5094154;28;20040;-75
2023/12/30 03:49:48;;;;;;;0.90;0.90;;;4.70;99.90;;;;;;5093794;28;20036;-75
2023/12/30 03:52:13;;;;;;;0.90;0.90;;;4.70;99.90;;;;;;5093760;28;20040;-75
2023/12/30 03:54:39;;;;;;;1.10;1.00;;;4.70;99.90;;;;;;5093602;28;20032;-76
2023/12/30 03:57:04;;;;;;;1.10;1.00;;;4.60;99.90;;;;;;5093778;28;20074;-75
2023/12/30 03:59:30;;;;;;;0.93;0.93;;;4.60;99.90;;;;;;5093685;28;20035;-75
2023/12/30 04:01:55;;;;;;;1.00;1.00;;;4.60;99.90;;;;;;5093665;28;20044;-75
2023/12/30 04:04:21;;;;;;;1.10;1.00;;;5.50;99.90;;;;;;5093917;28;20036;-75
2023/12/30 04:06:46;;;;;;;1.02;0.93;;;4.60;99.90;;;;;;5093776;28;20040;-75
2023/12/30 04:09:12;;;;;;;1.10;1.00;;;4.60;99.90;;;;;;5093648;28;20051;-75
2023/12/30 04:11:38;;;;;;;0.90;0.90;;;4.60;99.90;;;;;;5093599;28;20058;-76
2023/12/30 04:14:03;;;;;;;1.10;1.00;;;4.60;99.90;;;;;;5093915;28;20036;-75
2023/12/30 04:16:29;;;;;;;0.93;0.93;;;4.60;99.90;;;;;;5093672;28;20446;-76
2023/12/30 04:18:54;;;;;;;1.10;1.00;;;4.60;99.90;;;;;;5093349;28;20127;-75
2023/12/30 04:21:24;;;;;;;1.10;1.00;;;4.60;99.90;;;;;;5093360;28;20044;-75
2023/12/30 04:23:49;;;;;;;1.10;1.00;;;4.60;99.90;;;;;;5093519;28;20043;-75
2023/12/30 04:26:15;;;;;;;0.90;0.90;;;4.60;99.90;;;;;;5093352;28;20081;-75
2023/12/30 04:28:41;;;;;;;1.10;1.00;;;4.60;99.90;;;;;;5093904;28;20471;-75
2023/12/30 04:31:06;;;;;;;1.10;1.00;;;4.60;99.90;;;;;;5093832;28;20423;-75
2023/12/30 04:33:32;;;;;;;1.10;1.00;;;4.50;99.90;;;;;;5093425;28;20044;-75
2023/12/30 04:35:57;;;;;;;0.90;0.90;;;4.60;99.90;;;;;;5093295;28;20036;-75
2023/12/30 04:38:25;;;;;;;0.90;0.90;;;4.60;99.90;;;;;;5093424;28;20035;-77
2023/12/30 04:40:51;;;;;;;1.10;1.00;;;4.60;99.90;;;;;;5092055;28;20063;-77
2023/12/30 04:43:16;;;;;;;1.10;1.00;;;4.50;99.90;;;;;;5096070;28;20040;-75
2023/12/30 04:45:42;;;;;;;1.10;1.00;;;4.50;99.90;;;;;;5097097;28;20613;-77
2023/12/30 04:48:08;;;;;;;1.10;1.00;;;4.60;99.90;;;;;;5096932;28;20075;-76
2023/12/30 04:50:33;;;;;;;1.10;1.00;;;4.50;99.90;;;;;;5097207;28;20044;-76
2023/12/30 04:52:59;;;;;;;1.65;1.55;;;4.50;99.90;;;;;;5096879;28;20028;-75
2023/12/30 04:55:25;;;;;;;0.90;0.90;;;4.50;99.90;;;;;;5096728;28;20415;-75
2023/12/30 04:57:50;;;;;;;1.10;1.00;;;4.50;99.90;;;;;;5097317;28;20123;-74
2023/12/30 05:00:17;;;;;;;1.10;1.00;;;4.50;99.90;;;;;;5097169;28;20464;-76
2023/12/30 05:02:42;;;;;;;1.05;0.98;;;4.50;99.90;;;;;;5096814;28;20123;-74
2023/12/30 05:05:08;;;;;;;0.90;0.90;;;4.40;99.90;;;;;;5096724;28;20123;-74
2023/12/30 05:07:34;;;;;;;1.10;1.00;;;4.40;99.90;;;;;;5096783;28;20040;-76
2023/12/30 05:10:00;;;;;;;1.10;1.00;;;5.40;99.90;;;;;;5096540;28;20044;-75
2023/12/30 05:12:26;;;;;;;1.00;1.00;;;4.40;99.90;;;;;;5096248;28;20460;-76
2023/12/30 05:14:51;;;;;;;1.10;1.00;;;4.40;99.90;;;;;;5096257;28;20092;-75
2023/12/30 05:17:17;;;;;;;1.00;1.00;;;4.40;99.90;;;;;;5096492;28;20414;-75
2023/12/30 05:19:42;;;;;;;1.10;1.00;;;4.40;99.90;;;;;;5096022;28;20052;-75
2023/12/30 05:22:08;;;;;;;1.10;1.00;;;4.40;99.90;;;;;;5096457;28;20056;-75
2023/12/30 05:24:34;;;;;;;1.20;1.10;;;4.40;99.90;;;;;;5096353;28;20043;-77
2023/12/30 05:26:59;;;;;;;2.67;2.47;;;4.40;99.90;;;;;;5096817;28;20127;-77
2023/12/30 05:29:25;;;;;;;1.10;1.00;;;4.40;99.90;;;;;;5096540;28;20043;-76
2023/12/30 05:31:50;;;;;;;0.90;0.90;;;4.40;99.90;;;;;;5095018;28;20125;-76
2023/12/30 05:34:16;;;;;;;0.90;0.90;;;4.40;99.90;;;;;;5096113;28;20075;-75
2023/12/30 05:36:42;;;;;;;1.10;1.00;;;4.40;99.90;;;;;;5095886;28;20028;-75
2023/12/30 05:39:07;;;;;;;1.05;1.02;;;4.40;99.90;;;;;;5096140;28;20070;-75
2023/12/30 05:41:33;;;;;;;1.13;1.02;;;4.40;99.90;;;;;;5095986;28;20047;-77
2023/12/30 05:43:58;;;;;;;1.10;1.00;;;4.40;99.90;;;;;;5095907;28;20036;-75
2023/12/30 05:46:24;;;;;;;0.93;0.93;;;4.40;99.90;;;;;;5095996;28;20044;-76
2023/12/30 05:48:50;;;;;;;1.20;1.10;;;4.40;99.90;;;;;;5095968;28;20127;-77
2023/12/30 05:51:16;;;;;;;1.10;1.00;;;4.40;99.90;;;;;;5095973;28;20122;-75
2023/12/30 05:53:42;;;;;;;1.10;1.00;;;4.40;99.90;;;;;;5095049;28;20090;-75
2023/12/30 05:56:07;;;;;;;0.90;0.90;;;5.40;99.90;;;;;;5095441;28;20048;-75
2023/12/30 05:58:34;;;;;;;1.10;1.00;;;4.40;99.90;;;;;;5094488;28;20123;-76
2023/12/30 06:01:01;;;;;;;0.90;0.90;;;4.40;99.90;;;;;;5095623;28;20353;-76
2023/12/30 06:03:27;;;;;;;1.02;0.93;;;4.40;99.90;;;;;;5095582;28;20074;-75
2023/12/30 06:05:53;;;;;;;0.90;0.90;;;4.40;99.90;;;;;;5095616;28;20067;-75
2023/12/30 06:08:19;;;;;;;1.20;1.10;;;4.40;99.90;;;;;;5095496;28;20048;-77
2023/12/30 06:10:49;;;;;;;1.52;1.42;;;4.40;99.90;;;;;;5095340;28;20050;-76
2023/12/30 06:13:15;;;;;;;0.90;0.90;;;4.40;99.90;;;;;;5095512;28;20055;-75
2023/12/30 06:15:40;;;;;;;1.10;1.00;;;4.40;99.90;;;;;;5095230;28;20036;-74
2023/12/30 06:18:06;;;;;;;2.78;2.35;;;4.90;99.90;;;;;;5095234;28;20040;-77
2023/12/30 06:20:32;;;;;;;1.10;1.00;;;4.40;99.90;;;;;;5095308;28;20048;-70
2023/12/30 06:22:57;;;;;;;1.02;1.00;;;4.30;99.90;;;;;;5095232;28;20383;-76
2023/12/30 06:25:23;;;;;;;1.08;0.98;;;4.30;99.90;;;;;;5093903;28;20046;-75
2023/12/30 06:27:49;;;;;;;1.10;1.00;;;4.50;99.90;;;;;;5095155;28;20039;-77
2023/12/30 06:30:15;;;;;;;1.10;1.00;;;4.30;99.90;;;;;;5095100;28;20036;-74
2023/12/30 06:32:40;;;;;;;1.90;1.45;;;4.30;99.90;;;;;;5094791;28;20048;-76
2023/12/30 06:35:06;;;;;;;1.10;1.00;;;4.20;99.90;;;;;;5095118;28;20036;-75
2023/12/30 06:37:32;;;;;;;1.10;1.00;;;4.30;99.90;;;;;;5093832;28;20047;-75
2023/12/30 06:39:57;;;;;;;1.50;1.40;;;4.30;99.90;;;;;;5094916;28;20127;-81
2023/12/30 06:42:23;;;;;;;1.00;0.95;;;4.20;99.90;;;;;;5094842;28;20040;-83
2023/12/30 06:44:49;;;;;;;1.10;1.00;;;4.30;99.90;;;;;;5094428;28;20047;-76
2023/12/30 06:47:14;;;;;;;1.10;1.00;;;4.20;99.90;;;;;;5093615;28;20518;-82
2023/12/30 06:49:40;;;;;;;1.00;1.00;;;4.20;99.90;;;;;;5094593;28;20040;-79
2023/12/30 06:52:06;;;;;;;0.90;0.90;;;4.10;99.90;;;;;;5093448;28;20036;-75
2023/12/30 06:54:32;;;;;;;1.10;1.00;;;4.10;99.90;;;;;;5094230;28;20031;-74
2023/12/30 06:56:58;;;;;;;1.10;1.00;;;4.10;99.90;;;;;;5094823;28;20042;-79
2023/12/30 06:59:23;;;;;;;1.10;1.00;;;4.10;99.90;;;;;;5094504;28;20468;-74
2023/12/30 07:01:50;;;;;;;1.10;1.00;;;4.10;99.90;;;;;;5094182;28;20051;-76
2023/12/30 07:04:15;;;;;;;0.90;0.90;;;4.10;99.90;;;;;;5098799;28;20040;-79
2023/12/30 07:06:41;;;;;;;1.05;1.00;;;4.30;99.90;;;;;;5105209;28;20040;-75
2023/12/30 07:09:07;;;;;;;0.90;0.90;;;4.00;99.90;;;;;;5103048;28;20156;-75
2023/12/30 07:11:32;;;;;;;1.10;1.00;;;4.10;99.90;;;;;;5094043;28;20135;-74
2023/12/30 07:13:58;;;;;;;0.90;0.90;;;4.00;99.90;;;;;;5104170;28;20074;-74
2023/12/30 07:16:24;;;;;;;0.90;0.90;;;4.00;99.90;;;;;;5112290;28;20075;-73
2023/12/30 07:18:49;;;;;;;1.10;1.00;;;4.00;99.90;;;;;;5098759;28;20057;-74
2023/12/30 07:21:15;;;;;;;1.10;1.00;;;4.10;99.90;;;;;;5114114;28;20057;-74
2023/12/30 07:23:40;;;;;;;1.00;1.00;;;4.10;99.90;;;;;;5114506;28;20036;-77
2023/12/30 07:26:07;;;;;;;1.10;1.00;;;4.10;99.90;;;;;;5114451;28;20035;-75
2023/12/30 07:28:32;;;;;;;1.10;1.00;;;4.10;99.90;;;;;;5114438;28;20205;-80
2023/12/30 07:30:58;;;;;;;1.10;1.00;;;4.10;99.90;;;;;;5114601;28;20035;-74
2023/12/30 07:33:23;;;;;;;0.90;0.90;;;4.10;99.90;;;;;;5114267;28;20035;-75
2023/12/30 07:35:49;;;;;;;1.05;0.98;;;4.00;99.90;;;;;;5114450;28;20082;-79
2023/12/30 07:38:14;;;;;;;1.10;1.00;;;4.50;99.90;;;;;;5113099;28;20467;-73
2023/12/30 07:40:40;;;;;;;1.20;1.10;;;4.10;99.90;;;;;;5114211;28;20036;-76
2023/12/30 07:43:06;;;;;;;0.90;0.90;;;4.10;99.90;;;;;;5097135;28;20352;-81
2023/12/30 07:45:32;;;;;;;1.10;1.00;;;4.10;99.90;;;;;;5093865;28;20071;-79
2023/12/30 07:47:57;;;;;;;1.10;1.00;;;4.00;99.90;;;;;;5093792;28;20075;-73
2023/12/30 07:50:23;;;;;;;1.10;1.00;;;4.10;99.90;;;;;;5093799;28;20082;-74
2023/12/30 07:52:49;;;;;;;0.90;0.90;;;4.00;99.90;;;;;;5093940;28;20046;-73
2023/12/30 07:55:14;;;;;;;1.10;1.00;;;4.00;99.90;;;;;;5093702;28;20079;-77
2023/12/30 07:57:40;;;;;;;0.95;0.90;;;4.10;99.90;;;;;;5093808;28;20040;-72
2023/12/30 08:00:06;;;;;;;1.10;1.00;;;4.70;99.90;;;;;;5092355;28;20453;-74
2023/12/30 08:02:32;;;;;;;1.40;1.30;;;4.10;99.90;;;;;;5092485;28;20476;-74
2023/12/30 08:04:59;;;;;;;0.90;0.90;;;4.00;99.90;;;;;;5093759;28;20309;-82
2023/12/30 08:07:25;;;;;;;0.90;0.90;;;4.10;99.90;;;;;;5093595;28;20069;-71
2023/12/30 08:09:51;;;;;;;0.90;0.90;;;4.10;99.90;;;;;;5093480;28;20032;-79
2023/12/30 08:12:16;;;;;;;0.90;0.90;;;4.10;99.90;;;;;;5093584;28;20079;-73
2023/12/30 08:14:42;;;;;;;5.00;3.30;;;4.10;99.90;;;;;;5093571;28;20083;-77
2023/12/30 08:17:07;;;;;;;1.10;1.00;;;4.10;99.90;;;;;;5094034;28;20039;-78
2023/12/30 08:19:33;;;;;;;0.90;0.90;;;4.10;99.90;;;;;;5097063;28;20044;-73
2023/12/30 08:21:59;;;;;;;1.10;1.00;;;4.10;99.90;;;;;;5097594;28;20130;-72
2023/12/30 08:24:28;;;;;;;1.17;1.15;;;4.10;99.90;;;;;;5097256;28;20479;-75
2023/12/30 08:26:53;;;;;;;1.10;1.00;;;4.20;99.90;;;;;;5097955;28;20047;-70
2023/12/30 08:29:19;;;;;;;0.90;0.90;;;4.20;99.90;;;;;;5097838;28;20460;-76
2023/12/30 08:31:47;;;;;;;1.80;1.70;;;4.20;99.90;;;;;;5097396;28;20103;-73
2023/12/30 08:34:14;;;;;;;0.85;0.85;;;4.30;99.90;;;;;;5097289;28;20032;-73
2023/12/30 08:36:39;;;;;;;0.90;0.90;;;4.30;99.90;;;;;;5096358;28;20039;-72
2023/12/30 08:39:05;;;;;;;1.10;1.00;;;4.30;99.90;;;;;;5097146;28;20040;-78
2023/12/30 08:41:31;;;;;;;1.10;1.00;;;4.30;99.90;;;;;;5096912;28;20054;-73
2023/12/30 08:44:00;;;;;;;0.90;0.90;;;4.30;99.90;;;;;;5097116;28;20036;-71
2023/12/30 08:46:26;;;;;;;0.90;0.90;;;4.40;99.90;;;;;;5096724;28;20455;-73
2023/12/30 08:48:51;;;;;;;1.00;1.00;;;4.40;99.90;;;;;;5097159;28;20083;-74
2023/12/30 08:51:17;;;;;;;3.70;1.45;;;4.40;99.90;;;;;;5097190;28;20036;-75
2023/12/30 08:53:43;;;;;;;0.90;0.90;;;4.50;99.90;;;;;;5096272;28;20482;-72
2023/12/30 08:56:08;;;;;;;0.90;0.90;;;4.40;99.90;;;;;;5096443;28;20035;-74
2023/12/30 08:58:34;;;;;;;1.20;1.10;;;4.50;99.90;;;;;;5096266;28;20040;-70
2023/12/30 09:01:03;;;;;;;1.10;1.00;;;4.60;99.90;;;;;;5096054;28;20100;-73
2023/12/30 09:03:28;;;;;;;1.35;1.25;;;4.50;99.90;;;;;;5093627;28;20032;-72
2023/12/30 09:05:54;;;;;;;1.10;1.00;;;5.30;99.90;;;;;;5096419;28;20101;-71
2023/12/30 09:08:19;;;;;;;1.92;1.75;;;4.60;99.90;;;;;;5096666;28;20079;-71
2023/12/30 09:10:45;;;;;;;0.90;0.90;;;4.70;99.90;;;;;;5096994;28;20413;-73
2023/12/30 09:13:11;;;;;;;0.90;0.90;;;4.70;99.90;;;;;;5096936;28;20044;-72
2023/12/30 09:15:37;;;;;;;1.35;1.25;;;4.70;99.90;;;;;;5095304;28;20040;-71
2023/12/30 09:18:03;;;;;;;0.90;0.90;;;4.80;99.90;;;;;;5096454;28;20044;-72
2023/12/30 09:20:29;;;;;;;1.37;1.27;;;4.80;99.90;;;;;;5096328;28;20052;-79
2023/12/30 09:22:54;;;;;;;1.52;1.42;;;4.90;99.90;;;;;;5096302;28;20051;-77
2023/12/30 09:25:20;;;;;;;0.90;0.90;;;4.90;99.90;;;;;;5096322;28;20035;-74
2023/12/30 09:27:46;;;;;;;1.75;1.23;;;6.00;99.90;;;;;;5096272;28;20047;-72
2023/12/30 09:30:12;;;;;;;2.60;2.17;;;4.90;99.90;;;;;;5094982;28;20456;-76
2023/12/30 09:32:38;;;;;;;2.25;2.08;;;5.00;99.90;;;;;;5095776;28;20050;-79
2023/12/30 09:35:05;;;;;;;1.30;1.20;;;5.00;99.90;;;;;;5095143;28;20119;-82
2023/12/30 09:37:30;;;;;;;0.90;0.90;;;5.00;99.90;;;;;;5094782;28;20044;-75
2023/12/30 09:39:56;;;;;;;0.90;0.90;;;5.00;99.90;;;;;;5096040;28;20109;-70
2023/12/30 09:42:22;;;;;;;1.40;1.30;;;5.10;99.90;;;;;;5096011;28;20033;-71
2023/12/30 09:44:50;;;;;;;1.20;1.10;;;6.00;99.90;;;;;;5095779;28;20046;-72
2023/12/30 09:47:17;;;;;;;1.35;1.25;;;5.10;99.90;;;;;;5095664;28;20278;-70
2023/12/30 09:49:44;;;;;;;0.90;0.90;;;5.20;99.90;;;;;;5093480;28;20655;-74
2023/12/30 09:52:10;;;;;;;0.90;0.90;;;5.20;99.90;;;;;;5089592;28;20535;-71
2023/12/30 09:54:37;;;;;;;0.90;0.90;;;5.30;99.90;;;;;;5090772;28;20036;-73
2023/12/30 09:57:04;;;;;;;2.35;1.63;;;5.30;99.90;;;;;;5091209;28;20054;-72
2023/12/30 09:59:30;;;;;;;1.73;1.63;;;5.30;99.90;;;;;;5091042;28;20067;-73
2023/12/30 10:01:59;;;;;;;1.10;1.00;;;5.40;99.90;;;;;;5090932;28;20777;-71
2023/12/30 10:04:24;;;;;;;0.90;0.90;;;5.40;99.90;;;;;;5091846;28;20040;-72
2023/12/30 10:06:51;;;;;;;1.45;1.35;;;5.40;99.90;;;;;;5093318;28;20047;-69
2023/12/30 10:09:18;;;;;;;1.40;1.30;;;5.50;99.90;;;;;;5093626;28;20036;-81
2023/12/30 10:11:45;;;;;;;1.60;1.50;;;6.60;99.90;;;;;;5095074;28;20047;-74
2023/12/30 10:14:11;;;;;;;1.13;1.02;;;5.60;99.90;;;;;;5095171;28;20076;-72
2023/12/30 10:16:37;;;;;;;1.42;1.33;;;5.60;99.90;;;;;;5095483;28;20085;-74
2023/12/30 10:19:07;;;;;;;1.35;1.25;;;5.60;99.90;;;;;;5110772;28;20122;-72
2023/12/30 10:21:35;;;;;;;0.90;0.90;;;5.70;99.90;;;;;;5115604;28;20044;-79
2023/12/30 10:24:03;;;;;;;0.90;0.90;;;5.70;99.90;;;;;;5114552;28;20047;-73
2023/12/30 10:27:18;;;;;;;1.30;1.20;;;5.70;99.90;;;;;;5094695;28;20043;-79
2023/12/30 10:29:54;;;;;;;1.00;1.00;;;5.80;99.90;;;;;;5089792;28;20384;-73
2023/12/30 10:32:25;;;;;;;0.90;0.90;;;5.90;99.90;;;;;;5076400;28;20051;-75
2023/12/30 10:34:54;;;;;;;0.90;0.90;;;5.90;99.90;;;;;;5092489;28;20028;-80
2023/12/30 10:37:23;;;;;;;0.90;0.90;;;6.00;99.90;;;;;;5096552;28;20032;-74
2023/12/30 10:39:53;;;;;;;1.40;1.33;;;6.00;99.90;;;;;;5086411;28;20028;-73
2023/12/30 10:42:19;;;;;;;0.80;0.80;;;6.10;99.90;;;;;;5112566;28;20155;-74
2023/12/30 10:44:44;;;;;;;2.28;2.08;;;6.10;99.90;;;;;;5112287;28;20060;-76
2023/12/30 10:47:14;;;;;;;0.90;0.90;;;6.10;99.90;;;;;;5113228;28;20065;-69
2023/12/30 10:49:49;;;;;;;0.90;0.90;;;6.20;99.90;;;;;;5112572;28;20035;-75
2023/12/30 10:52:18;;;;;;;0.90;0.90;;;6.20;99.90;;;;;;5094252;28;20071;-72
2023/12/30 10:54:50;;;;;;;0.90;0.90;;;6.30;99.90;;;;;;5093768;28;20044;-72
2023/12/30 10:57:18;;;;;;;2.47;1.20;;;6.30;99.90;;;;;;5097733;28;20044;-70
2023/12/30 10:59:49;;;;;;;0.80;0.80;;;6.40;99.90;;;;;;5112162;28;20039;-72
2023/12/30 11:02:16;;;;;;;1.05;0.90;;;6.40;99.90;;;;;;5112270;28;20118;-71
2023/12/30 11:04:44;;;;;;;1.20;1.10;;;6.40;99.90;;;;;;5105608;28;20047;-71
2023/12/30 11:07:13;;;;;;;1.42;1.33;;;6.40;99.90;;;;;;5114310;28;20032;-71
2023/12/30 11:09:39;;;;;;;1.00;1.00;;;6.40;99.90;;;;;;5109659;28;20062;-71
2023/12/30 11:12:08;;;;;;;1.43;1.03;;;6.40;99.90;;;;;;5093692;28;20047;-75
2023/12/30 11:14:36;;;;;;;0.90;0.90;;;6.40;99.90;;;;;;5097001;28;20351;-79
2023/12/30 11:17:01;;;;;;;0.90;0.90;;;6.50;99.90;;;;;;5095538;28;20051;-73
2023/12/30 11:19:32;;;;;;;0.85;0.85;;;6.50;99.90;;;;;;5092665;28;20052;-72
2023/12/30 11:22:06;;;;;;;0.85;0.85;;;6.60;99.90;;;;;;5097087;28;20051;-74
2023/12/30 11:24:33;;;;;;;0.82;0.82;;;6.70;99.90;;;;;;5106457;28;20039;-70
2023/12/30 11:26:59;;;;;;;0.90;0.90;;;6.90;99.90;;;;;;5105833;28;20398;-70
2023/12/30 11:29:27;;;;;;;0.90;0.90;;;7.10;99.90;;;;;;5114106;28;20046;-71
2023/12/30 11:31:55;;;;;;;0.90;0.90;;;7.60;99.90;;;;;;5107043;28;20043;-71
2023/12/30 11:34:24;;;;;;;0.90;0.90;;;7.00;99.90;;;;;;5114167;28;20035;-72
2023/12/30 11:36:51;;;;;;;1.08;1.08;;;7.10;99.90;;;;;;5106021;28;20043;-72
2023/12/30 11:39:30;;;;;;;0.90;0.90;;;7.00;99.90;;;;;;5092132;28;20071;-70
2023/12/30 11:42:01;;;;;;;0.90;0.90;;;7.00;99.90;;;;;;5093639;28;20471;-76
2023/12/30 11:44:30;;;;;;;0.88;0.88;;;7.10;99.90;;;;;;5094270;28;20032;-70
2023/12/30 11:46:56;;;;;;;0.90;0.90;;;8.00;99.90;;;;;;5093892;28;20036;-74
2023/12/30 11:49:23;;;;;;;0.90;0.90;;;8.00;99.90;;;;;;5091791;28;20032;-71
2023/12/30 11:51:50;;;;;;;2.30;2.17;;;7.30;99.90;;;;;;5108749;28;20039;-72
2023/12/30 11:54:16;;;;;;;0.90;0.90;;;7.30;99.90;;;;;;5093358;28;20076;-75
2023/12/30 11:56:42;;;;;;;1.20;1.10;;;8.50;99.90;;;;;;5094356;28;20070;-73
2023/12/30 11:59:09;;;;;;;1.05;1.00;;;7.50;99.90;;;;;;5090421;28;20039;-73
2023/12/30 12:01:34;;;;;;;0.90;0.90;;;7.50;99.90;;;;;;5093492;28;20468;-74
2023/12/30 12:04:00;;;;;;;0.93;0.93;;;7.60;99.90;;;;;;5097738;28;20036;-72
2023/12/30 12:06:26;;;;;;;2.45;1.35;;;7.60;99.90;;;;;;5093660;28;20422;-71
2023/12/30 12:08:51;;;;;;;1.00;1.00;;;8.00;99.90;;;;;;5093711;28;20073;-74
2023/12/30 12:11:17;;;;;;;1.10;1.00;;;7.60;99.90;;;;;;5092903;28;20481;-71
2023/12/30 12:13:43;;;;;;;0.90;0.90;;;7.60;99.90;;;;;;5093676;28;20048;-71
2023/12/30 12:16:08;;;;;;;1.35;1.25;;;7.60;99.90;;;;;;5093988;28;20047;-71
2023/12/30 12:18:34;;;;;;;0.80;0.80;;;7.60;99.90;;;;;;5093577;28;20044;-71
2023/12/30 12:21:03;;;;;;;0.90;0.90;;;7.60;99.90;;;;;;5094025;28;20052;-79
2023/12/30 12:23:30;;;;;;;1.20;1.10;;;7.90;99.90;;;;;;5093578;28;20076;-73
2023/12/30 12:25:57;;;;;;;0.90;0.90;;;8.30;99.90;;;;;;5093528;28;20040;-72
2023/12/30 12:28:23;;;;;;;;;;;7.60;99.90;;;;;;5093932;28;20044;-74
2023/12/30 12:30:49;;;;;;;0.80;0.80;;;7.60;99.90;;;;;;5093547;28;20274;-73
2023/12/30 12:33:17;;;;;;;0.82;0.82;;;7.60;99.90;;;;;;5093398;28;20417;-72
2023/12/30 12:35:43;;;;;;;0.90;0.90;;;7.60;99.90;;;;;;5093818;28;20196;-72
2023/12/30 12:38:09;;;;;;;0.90;0.90;;;7.50;99.90;;;;;;5093093;28;20472;-72
2023/12/30 12:40:35;;;;;;;0.90;0.90;;;7.50;99.90;;;;;;5093709;28;20044;-72
2023/12/30 12:43:01;;;;;;;0.90;0.90;;;7.60;99.90;;;;;;5093409;28;20476;-72
2023/12/30 12:45:26;;;;;;;0.80;0.80;;;7.60;99.90;;;;;;5093319;28;20119;-74
2023/12/30 12:47:52;;;;;;;0.80;0.80;;;7.50;99.90;;;;;;5093150;28;20048;-77
2023/12/30 12:50:18;;;;;;;1.45;1.35;;;7.60;99.90;;;;;;5092847;28;20083;-71
2023/12/30 12:52:44;;;;;;;1.20;1.10;;;7.70;99.90;;;;;;5093310;28;20047;-71